Time;durP1;ratioP1;P1;durP2;ratioP2;P2;SDS_P1;SDS_P2;PMS_P1;PMS_P2;Temp;Humidity;BMP_temperature;BMP_pressure;BME280_temperature;BME280_humidity;BME280_pressure;Samples;Min_cycle;Max_cycle;Signal;HPM_P1;HPM_P2
2021/09/24 00:01:38;;;;;;;16.13;3.00;;;;;;;11.32;95.63;100641.56;5089699;28;20084;-71
2021/09/24 00:04:06;;;;;;;13.97;2.83;;;;;;;11.30;95.91;100647.06;5089633;28;20044;-71
2021/09/24 00:06:31;;;;;;;18.83;2.97;;;;;;;11.29;95.75;100642.75;5090434;28;20036;-71
2021/09/24 00:08:57;;;;;;;13.77;2.80;;;;;;;11.34;95.70;100651.09;5072012;28;20046;-71
2021/09/24 00:11:22;;;;;;;16.57;2.63;;;;;;;11.35;95.47;100633.19;5089731;28;20031;-71
2021/09/24 00:13:48;;;;;;;15.60;2.17;;;;;;;11.31;96.22;100645.25;5089648;28;20031;-71
2021/09/24 00:16:13;;;;;;;12.32;2.65;;;;;;;11.30;96.40;100639.06;5090313;28;20123;-71
2021/09/24 00:18:39;;;;;;;21.33;4.20;;;;;;;11.36;96.81;100637.56;5072353;28;20036;-71
2021/09/24 00:21:04;;;;;;;25.00;3.10;;;;;;;11.22;97.89;100647.09;5072763;28;20618;-71
2021/09/24 00:23:30;;;;;;;20.27;3.60;;;;;;;11.28;97.84;100637.56;5090137;28;20516;-71
2021/09/24 00:25:55;;;;;;;21.60;2.53;;;;;;;11.31;97.13;100639.91;5089295;28;20100;-71
2021/09/24 00:28:20;;;;;;;15.70;2.93;;;;;;;11.28;97.58;100646.41;5090096;28;20063;-71
2021/09/24 00:30:46;;;;;;;24.23;3.43;;;;;;;11.27;97.84;100650.09;5090068;28;20043;-71
2021/09/24 00:33:11;;;;;;;15.43;3.17;;;;;;;11.30;98.22;100649.75;5088951;28;20100;-71
2021/09/24 00:35:37;;;;;;;15.60;3.10;;;;;;;11.32;98.23;100644.25;5090002;28;20051;-71
2021/09/24 00:38:02;;;;;;;19.97;3.70;;;;;;;11.22;98.49;100643.59;5088805;28;20126;-71
2021/09/24 00:40:31;;;;;;;23.63;3.43;;;;;;;11.14;99.21;100652.44;5089853;28;20281;-71
2021/09/24 00:42:57;;;;;;;16.83;3.22;;;;;;;11.09;99.06;100652.13;5088797;28;20050;-71
2021/09/24 00:45:22;;;;;;;25.15;3.38;;;;;;;11.11;99.46;100658.13;5089813;28;20453;-71
2021/09/24 00:47:48;;;;;;;18.80;3.05;;;;;;;11.08;99.20;100661.16;5088507;28;20583;-72
2021/09/24 00:50:13;;;;;;;17.10;2.60;;;;;;;10.95;100.00;100658.97;5089518;28;20028;-71
2021/09/24 00:52:39;;;;;;;21.40;3.50;;;;;;;10.91;99.84;100666.50;5089797;28;20467;-71
2021/09/24 00:55:05;;;;;;;17.67;4.78;;;;;;;10.97;99.66;100662.31;5088473;28;20043;-71
2021/09/24 00:57:31;;;;;;;18.45;3.25;;;;;;;10.93;99.58;100674.31;5088649;28;20047;-71
2021/09/24 00:59:56;;;;;;;13.40;2.87;;;;;;;10.91;99.60;100682.53;5088355;28;20028;-71
2021/09/24 01:02:22;;;;;;;17.70;3.10;;;;;;;10.86;99.63;100684.81;5089675;28;20120;-71
2021/09/24 01:04:48;;;;;;;24.50;3.33;;;;;;;10.80;99.88;100680.16;5088252;28;20466;-72
2021/09/24 01:07:13;;;;;;;23.02;3.05;;;;;;;10.78;99.94;100676.81;5089293;28;20445;-71
2021/09/24 01:09:39;;;;;;;16.27;3.67;;;;;;;10.80;99.54;100674.00;5088539;28;20036;-71
2021/09/24 01:12:06;;;;;;;28.30;3.45;;;;;;;10.77;99.21;100669.81;5088750;28;20274;-71
2021/09/24 01:14:32;;;;;;;31.25;3.28;;;;;;;10.71;99.61;100673.97;5089158;28;20032;-71
2021/09/24 01:16:59;;;;;;;18.20;2.70;;;;;;;10.72;99.94;100677.47;5088257;28;20043;-71
2021/09/24 01:19:25;;;;;;;21.90;2.97;;;;;;;10.64;100.00;100667.63;5087927;28;20032;-71
2021/09/24 01:21:51;;;;;;;25.42;4.53;;;;;;;10.73;99.88;100687.16;5089316;28;20039;-71
2021/09/24 01:24:17;;;;;;;22.38;4.40;;;;;;;10.74;99.89;100684.31;5089092;28;20051;-71
2021/09/24 01:26:54;;;;;;;20.45;3.53;;;;;;;10.66;99.58;100673.63;5088904;28;20039;-71
2021/09/24 01:29:22;;;;;;;18.77;4.30;;;;;;;10.73;99.81;100679.16;5089034;28;20063;-71
2021/09/24 01:31:48;;;;;;;15.27;2.47;;;;;;;10.63;100.00;100691.81;5088720;28;20032;-71
2021/09/24 01:34:13;;;;;;;22.47;3.40;;;;;;;10.60;100.00;100682.28;5089066;28;20513;-71
2021/09/24 01:36:39;;;;;;;26.90;3.17;;;;;;;10.53;100.00;100687.44;5070832;28;20047;-71
2021/09/24 01:39:08;;;;;;;30.53;4.80;;;;;;;10.61;100.00;100686.66;5087923;28;20162;-71
2021/09/24 01:41:37;;;;;;;16.55;3.45;;;;;;;10.65;99.57;100687.16;5071007;28;20277;-71
2021/09/24 01:44:03;;;;;;;21.35;3.33;;;;;;;10.65;99.11;100679.13;5088721;28;20032;-71
2021/09/24 01:46:28;;;;;;;23.08;3.25;;;;;;;10.65;98.99;100693.34;5087291;28;20050;-71
2021/09/24 01:48:54;;;;;;;14.37;3.03;;;;;;;10.60;98.66;100682.28;5087700;28;20036;-71
2021/09/24 01:51:19;;;;;;;25.23;2.43;;;;;;;10.56;98.50;100689.81;5088613;28;20652;-71
2021/09/24 01:53:45;;;;;;;22.77;4.57;;;;;;;10.51;99.04;100686.81;5087820;28;20527;-71
2021/09/24 01:56:10;;;;;;;18.77;3.67;;;;;;;10.56;98.90;100694.31;5088266;28;20846;-71
2021/09/24 01:58:35;;;;;;;25.37;5.10;;;;;;;10.54;99.36;100697.16;5088539;28;20040;-72
2021/09/24 02:01:01;;;;;;;21.40;3.92;;;;;;;10.62;98.12;100687.47;5069933;28;20127;-71
2021/09/24 02:03:27;;;;;;;17.70;3.10;;;;;;;10.69;97.79;100677.81;5071026;28;20027;-71
2021/09/24 02:05:52;;;;;;;14.00;3.80;;;;;;;10.76;97.50;100684.16;5087499;28;20028;-71
2021/09/24 02:08:17;;;;;;;23.00;4.47;;;;;;;10.79;97.09;100678.47;5088486;28;20618;-71
2021/09/24 02:10:43;;;;;;;27.23;6.10;;;;;;;10.77;96.91;100676.00;5087852;28;20048;-71
2021/09/24 02:13:08;;;;;;;15.23;2.57;;;;;;;10.88;95.92;100679.34;5088498;28;20077;-71
2021/09/24 02:15:34;;;;;;;20.20;3.10;;;;;;;10.91;94.66;100677.19;5088379;28;20079;-72
2021/09/24 02:17:59;;;;;;;16.00;4.27;;;;;;;10.98;94.85;100675.50;5088332;28;20290;-72
2021/09/24 02:20:25;;;;;;;15.40;3.90;;;;;;;10.98;94.13;100678.19;5070476;28;20125;-71
2021/09/24 02:22:51;;;;;;;15.93;3.13;;;;;;;11.08;93.72;100674.50;5088423;28;20027;-71
2021/09/24 02:25:16;;;;;;;17.15;2.65;;;;;;;11.13;92.98;100670.31;5088386;28;20043;-71
2021/09/24 02:27:42;;;;;;;20.70;2.97;;;;;;;11.18;93.57;100677.84;5070353;28;20032;-71
2021/09/24 02:30:08;;;;;;;16.30;3.05;;;;;;;11.20;93.24;100678.50;5087337;28;20173;-71
2021/09/24 02:32:34;;;;;;;19.20;4.00;;;;;;;11.16;92.55;100682.50;5087284;28;20047;-71
2021/09/24 02:34:59;;;;;;;13.87;2.67;;;;;;;11.18;92.33;100653.78;5088369;28;20024;-71
2021/09/24 02:37:25;;;;;;;18.20;3.57;;;;;;;11.22;91.39;100673.81;5070379;28;20518;-71
2021/09/24 02:39:51;;;;;;;20.40;3.05;;;;;;;11.24;90.80;100669.16;5088180;28;20040;-71
2021/09/24 02:42:16;;;;;;;16.23;3.57;;;;;;;11.28;91.06;100678.47;5088334;28;20176;-71
2021/09/24 02:44:42;;;;;;;18.80;3.03;;;;;;;11.33;90.08;100676.16;5070150;28;20036;-71
2021/09/24 02:47:09;;;;;;;17.43;2.50;;;;;;;11.34;90.51;100680.50;5088388;28;20092;-71
2021/09/24 02:49:38;;;;;;;14.93;3.03;;;;;;;11.27;90.66;100678.66;5086899;28;20040;-71
2021/09/24 02:52:05;;;;;;;19.40;3.28;;;;;;;11.28;89.39;100681.16;5070519;28;20457;-71
2021/09/24 02:54:31;;;;;;;26.27;3.42;;;;;;;11.25;89.62;100686.84;5086988;28;20074;-71
2021/09/24 02:56:56;;;;;;;21.98;3.78;;;;;;;11.22;89.87;100692.53;5070466;28;20040;-71
2021/09/24 02:59:21;;;;;;;16.00;3.73;;;;;;;11.05;91.10;100698.88;5070045;28;20043;-71
2021/09/24 03:01:47;;;;;;;17.08;2.55;;;;;;;11.01;91.22;100695.72;5088292;28;20188;-71
2021/09/24 03:04:12;;;;;;;21.50;3.00;;;;;;;10.99;91.05;100697.72;5086904;28;20039;-71
2021/09/24 03:06:38;;;;;;;23.90;2.90;;;;;;;10.97;91.84;100703.19;5088096;28;20043;-71
2021/09/24 03:09:03;;;;;;;32.00;4.53;;;;;;;10.96;91.74;100701.53;5087235;28;20780;-72
2021/09/24 03:11:29;;;;;;;25.93;3.33;;;;;;;10.97;91.84;100708.53;5089573;28;20035;-71
2021/09/24 03:13:54;;;;;;;16.47;2.90;;;;;;;10.96;92.41;100706.88;5073956;28;20036;-71
2021/09/24 03:16:20;;;;;;;18.95;4.05;;;;;;;10.91;92.62;100719.91;5090758;28;20040;-71
2021/09/24 03:18:47;;;;;;;23.00;3.80;;;;;;;10.95;91.79;100712.38;5090713;28;20042;-71
2021/09/24 03:21:13;;;;;;;25.98;3.85;;;;;;;10.97;92.52;100716.56;5091495;28;20040;-71
2021/09/24 03:23:38;;;;;;;19.17;3.35;;;;;;;10.95;92.46;100710.53;5091841;28;20544;-71
2021/09/24 03:26:04;;;;;;;16.30;3.07;;;;;;;10.91;92.33;100732.41;5091342;28;20055;-71
2021/09/24 03:28:30;;;;;;;24.57;4.27;;;;;;;10.87;92.73;100723.91;5091594;28;20032;-71
2021/09/24 03:30:56;;;;;;;15.27;2.60;;;;;;;10.78;93.75;100740.91;5091434;28;20097;-71
2021/09/24 03:33:21;;;;;;;18.77;2.83;;;;;;;10.68;94.32;100742.91;5091727;28;20044;-71
2021/09/24 03:35:46;;;;;;;22.97;4.43;;;;;;;10.68;95.12;100750.91;5073201;28;20040;-71
2021/09/24 03:38:12;;;;;;;23.30;3.00;;;;;;;10.59;95.75;100750.06;5090537;28;20066;-71
2021/09/24 03:40:37;;;;;;;14.43;3.77;;;;;;;10.57;95.88;100747.53;5090291;28;20040;-71
2021/09/24 03:43:03;;;;;;;22.27;4.80;;;;;;;10.52;96.56;100757.03;5091581;28;20067;-71
2021/09/24 03:45:29;;;;;;;22.58;4.43;;;;;;;10.55;96.37;100752.19;5091097;28;20040;-71
2021/09/24 03:47:55;;;;;;;23.77;4.00;;;;;;;10.59;95.81;100751.88;5091367;28;20103;-71
2021/09/24 03:50:21;;;;;;;23.40;3.47;;;;;;;10.55;95.77;100754.84;5091007;28;20043;-71
2021/09/24 03:52:46;;;;;;;20.65;4.35;;;;;;;10.52;96.17;100754.38;5091598;28;20050;-71
2021/09/24 03:55:12;;;;;;;24.03;4.37;;;;;;;10.50;96.71;100754.53;5091073;28;20118;-71
2021/09/24 03:57:37;;;;;;;20.43;3.00;;;;;;;10.50;96.04;100754.53;5090773;28;20622;-71
2021/09/24 04:00:04;;;;;;;31.30;3.93;;;;;;;10.45;96.46;100758.69;5090906;28;20093;-71
2021/09/24 04:02:37;;;;;;;23.55;2.78;;;;;;;10.43;96.83;100758.84;5089954;28;20105;-71
2021/09/24 04:05:03;;;;;;;30.40;5.95;;;;;;;10.45;96.67;100750.69;5072621;28;20040;-71
2021/09/24 04:07:28;;;;;;;26.58;4.40;;;;;;;10.40;96.80;100753.81;5089642;28;20032;-71
2021/09/24 04:09:54;;;;;;;14.93;4.60;;;;;;;10.32;97.29;100751.97;5072323;28;20418;-71
2021/09/24 04:12:19;;;;;;;26.27;3.95;;;;;;;10.34;96.99;100749.94;5090615;28;20050;-71
2021/09/24 04:14:44;;;;;;;27.87;4.00;;;;;;;10.36;96.21;100752.47;5089746;28;20056;-71
2021/09/24 04:17:10;;;;;;;24.87;4.20;;;;;;;10.28;96.47;100745.28;5089268;28;20082;-72
2021/09/24 04:19:35;;;;;;;39.73;5.17;;;;;;;10.45;96.14;100758.69;5090418;28;20461;-71
2021/09/24 04:22:01;;;;;;;33.03;3.80;;;;;;;10.39;96.28;100746.78;5090446;28;20452;-71
2021/09/24 04:24:26;;;;;;;26.37;3.17;;;;;;;10.40;95.51;100753.00;5089750;28;20472;-71
2021/09/24 04:26:52;;;;;;;24.67;3.85;;;;;;;10.39;95.56;100757.47;5072534;28;20036;-71
2021/09/24 04:29:17;;;;;;;23.80;4.73;;;;;;;10.48;95.73;100761.00;5072129;28;20456;-71
2021/09/24 04:31:43;;;;;;;20.80;3.50;;;;;;;10.37;95.59;100758.63;5090024;28;20325;-71
2021/09/24 04:34:09;;;;;;;36.45;4.30;;;;;;;10.33;96.13;100764.31;5072162;28;20113;-71
2021/09/24 04:36:35;;;;;;;32.50;5.88;;;;;;;10.34;95.67;100765.13;5090267;28;20096;-71
2021/09/24 04:39:02;;;;;;;24.60;3.60;;;;;;;10.25;96.54;100766.06;5070872;28;20043;-71
2021/09/24 04:41:28;;;;;;;33.30;6.15;;;;;;;10.28;95.72;100779.09;5071363;28;20040;-71
2021/09/24 04:43:54;;;;;;;27.17;4.22;;;;;;;10.22;96.18;100774.41;5088661;28;20036;-71
2021/09/24 04:46:19;;;;;;;24.05;4.78;;;;;;;10.29;95.74;100773.63;5089640;28;20032;-71
2021/09/24 04:48:45;;;;;;;25.77;5.50;;;;;;;10.23;95.84;100784.06;5089608;28;20031;-71
2021/09/24 04:51:11;;;;;;;25.33;4.93;;;;;;;10.16;96.19;100783.88;5072142;28;20115;-71
2021/09/24 04:53:36;;;;;;;28.30;5.10;;;;;;;10.13;96.35;100793.00;5089520;28;20105;-71
2021/09/24 04:56:02;;;;;;;31.60;4.90;;;;;;;10.05;97.17;100786.81;5087724;28;20449;-71
2021/09/24 04:58:27;;;;;;;23.05;4.95;;;;;;;10.13;96.84;100794.84;5089517;28;20039;-71
2021/09/24 05:00:53;;;;;;;32.27;6.37;;;;;;;10.06;96.84;100799.97;5089329;28;20346;-71
2021/09/24 05:03:18;;;;;;;25.30;5.53;;;;;;;10.11;96.72;100803.03;5071808;28;20034;-71
2021/09/24 05:05:44;;;;;;;33.30;5.38;;;;;;;10.08;97.02;100803.31;5088344;28;20039;-71
2021/09/24 05:08:10;;;;;;;35.27;4.37;;;;;;;10.06;97.25;100807.97;5071683;28;20020;-71
2021/09/24 05:10:37;;;;;;;28.17;6.60;;;;;;;10.07;96.94;100799.00;5088825;28;20044;-71
2021/09/24 05:13:02;;;;;;;25.55;3.80;;;;;;;9.98;97.30;100799.94;5089369;28;20031;-71
2021/09/24 05:15:28;;;;;;;18.40;4.60;;;;;;;10.01;96.73;100802.28;5071192;28;20046;-71
2021/09/24 05:17:53;;;;;;;32.17;6.70;;;;;;;10.07;95.77;100790.16;5089258;28;20036;-71
2021/09/24 05:20:19;;;;;;;25.93;5.03;;;;;;;10.12;95.36;100794.03;5088854;28;20032;-71
2021/09/24 05:22:44;;;;;;;36.03;6.27;;;;;;;10.13;95.35;100785.00;5089537;28;20024;-71
2021/09/24 05:25:10;;;;;;;41.67;5.50;;;;;;;10.15;95.30;100785.69;5088586;28;20154;-71
2021/09/24 05:27:36;;;;;;;28.67;4.28;;;;;;;10.20;95.84;100789.72;5087919;28;20028;-71
2021/09/24 05:30:02;;;;;;;29.80;6.03;;;;;;;10.25;95.83;100796.25;5069739;28;20092;-71
2021/09/24 05:32:27;;;;;;;;;;;;;;;10.21;95.66;100794.91;5088365;28;20101;-71
2021/09/24 05:34:53;;;;;;;;;;;;;;;10.30;95.25;100795.78;5070256;28;19920;-71
2021/09/24 05:37:18;;;;;;;19.07;3.87;;;;;;;10.37;94.45;100790.66;5087838;28;19988;-71
2021/09/24 05:39:44;;;;;;;24.90;3.30;;;;;;;10.43;94.54;100782.03;5087955;28;20130;-72
2021/09/24 05:42:09;;;;;;;14.97;4.73;;;;;;;10.56;93.82;100785.91;5087448;28;20032;-71
2021/09/24 05:44:35;;;;;;;27.23;4.33;;;;;;;10.63;92.76;100774.56;5086653;28;20086;-71
2021/09/24 05:47:01;;;;;;;28.77;4.32;;;;;;;10.74;92.72;100785.78;5087565;28;20070;-71
2021/09/24 05:49:29;;;;;;;28.67;4.37;;;;;;;10.76;93.57;100789.13;5087738;28;20056;-71
2021/09/24 05:51:56;;;;;;;32.58;5.25;;;;;;;10.72;92.45;100777.13;5087493;28;20399;-71
2021/09/24 05:54:22;;;;;;;30.52;5.28;;;;;;;10.77;93.10;100777.47;5087533;28;20048;-71
2021/09/24 05:56:47;;;;;;;21.02;4.65;;;;;;;10.82;93.01;100779.66;5086313;28;20044;-71
2021/09/24 05:59:13;;;;;;;39.97;5.70;;;;;;;10.84;92.24;100771.47;5088421;28;20089;-71
2021/09/24 06:01:38;;;;;;;25.50;4.57;;;;;;;10.90;92.89;100781.50;5088475;28;20032;-71
2021/09/24 06:04:04;;;;;;;19.43;4.47;;;;;;;10.96;93.22;100780.84;5070542;28;20035;-71
2021/09/24 06:06:29;;;;;;;20.23;4.18;;;;;;;10.97;93.54;100786.00;5088370;28;20039;-71
2021/09/24 06:08:55;;;;;;;27.97;5.50;;;;;;;11.10;93.09;100787.41;5086627;28;20036;-71
2021/09/24 06:11:20;;;;;;;32.63;5.57;;;;;;;11.14;91.75;100778.03;5088350;28;20615;-71
2021/09/24 06:13:46;;;;;;;31.70;5.45;;;;;;;11.25;91.16;100785.72;5088496;28;20144;-71
2021/09/24 06:16:12;;;;;;;26.05;3.92;;;;;;;11.36;91.64;100785.41;5087174;28;20040;-71
2021/09/24 06:18:38;;;;;;;23.10;3.63;;;;;;;11.30;90.06;100778.03;5087988;28;20028;-72
2021/09/24 06:21:03;;;;;;;34.63;5.05;;;;;;;11.40;90.01;100785.88;5088481;28;20077;-71
2021/09/24 06:23:31;;;;;;;22.50;3.37;;;;;;;11.49;90.47;100782.22;5088094;28;20040;-71
2021/09/24 06:26:00;;;;;;;31.90;5.13;;;;;;;11.41;90.67;100787.56;5088008;28;20039;-71
2021/09/24 06:28:28;;;;;;;21.90;3.85;;;;;;;11.54;91.29;100779.03;5088194;28;20063;-71
2021/09/24 06:30:54;;;;;;;27.98;5.03;;;;;;;11.54;90.41;100773.69;5088200;28;20067;-71
2021/09/24 06:33:20;;;;;;;30.95;4.90;;;;;;;11.61;90.98;100769.34;5088266;28;20056;-71
2021/09/24 06:35:47;;;;;;;40.53;5.03;;;;;;;11.83;90.28;100760.63;5087931;28;20047;-71
2021/09/24 06:38:12;;;;;;;36.50;5.65;;;;;;;12.53;89.07;100775.16;5087908;28;20036;-71
2021/09/24 06:40:37;;;;;;;20.10;4.60;;;;;;;13.02;84.56;100760.66;5070192;28;20373;-71
2021/09/24 06:43:03;;;;;;;27.70;4.77;;;;;;;13.23;83.42;100757.31;5087115;28;20031;-71
2021/09/24 06:45:28;;;;;;;20.10;6.30;;;;;;;13.24;83.36;100757.13;5070064;28;20036;-71
2021/09/24 06:47:55;;;;;;;25.08;5.00;;;;;;;12.78;83.97;100762.47;5091609;28;20043;-71
2021/09/24 06:50:20;;;;;;;33.95;5.65;;;;;;;12.55;85.85;100764.25;5091955;28;20031;-71
2021/09/24 06:52:45;;;;;;;28.52;5.10;;;;;;;12.40;85.96;100767.66;5073722;28;20038;-71
2021/09/24 06:55:11;;;;;;;28.53;4.60;;;;;;;12.45;86.63;100776.03;5090884;28;20516;-71
2021/09/24 06:57:37;;;;;;;21.00;4.60;;;;;;;12.57;87.53;100781.84;5091939;28;20032;-71
2021/09/24 07:00:05;;;;;;;25.75;4.15;;;;;;;12.33;86.87;100773.91;5091561;28;20476;-71
2021/09/24 07:02:32;;;;;;;21.50;4.68;;;;;;;12.48;86.79;100785.56;5074125;28;20048;-71
2021/09/24 07:04:57;;;;;;;19.08;4.38;;;;;;;12.59;87.42;100785.16;5090502;28;20357;-71
2021/09/24 07:07:23;;;;;;;33.85;4.43;;;;;;;12.45;87.13;100784.06;5091044;28;20032;-71
2021/09/24 07:09:49;;;;;;;20.08;3.67;;;;;;;12.66;87.41;100785.28;5089744;28;20040;-71
2021/09/24 07:12:14;;;;;;;25.10;4.53;;;;;;;12.73;86.38;100780.06;5089723;28;20050;-71
2021/09/24 07:14:40;;;;;;;25.77;4.85;;;;;;;13.02;86.05;100790.97;5090316;28;20039;-71
2021/09/24 07:17:06;;;;;;;23.87;4.77;;;;;;;13.30;84.60;100787.78;5089320;28;20342;-71
2021/09/24 07:19:31;;;;;;;21.33;3.00;;;;;;;13.57;82.89;100788.22;5090356;28;20046;-71
2021/09/24 07:21:57;;;;;;;18.50;2.90;;;;;;;13.36;82.27;100776.31;5089721;28;20149;-71
2021/09/24 07:24:22;;;;;;;34.05;5.63;;;;;;;13.85;80.76;100778.56;5090195;28;20253;-71
2021/09/24 07:26:48;;;;;;;29.43;4.83;;;;;;;13.77;80.77;100778.66;5072537;28;20101;-71
2021/09/24 07:29:15;;;;;;;23.13;4.40;;;;;;;13.78;81.45;100782.16;5090102;28;20028;-71
2021/09/24 07:31:40;;;;;;;23.15;4.13;;;;;;;14.04;81.65;100781.72;5089177;28;20060;-71
2021/09/24 07:34:05;;;;;;;21.93;4.07;;;;;;;13.85;81.53;100769.69;5090208;28;20129;-71
2021/09/24 07:36:31;;;;;;;20.37;4.17;;;;;;;13.83;81.68;100785.97;5089941;28;20368;-71
2021/09/24 07:38:57;;;;;;;22.53;4.97;;;;;;;13.86;82.08;100793.66;5090034;28;20039;-71
2021/09/24 07:41:23;;;;;;;23.77;4.35;;;;;;;13.77;81.26;100788.56;5089054;28;20036;-71
2021/09/24 07:43:51;;;;;;;20.33;4.05;;;;;;;13.84;82.40;100787.66;5072311;28;20046;-71
2021/09/24 07:46:18;;;;;;;27.77;5.95;;;;;;;13.90;82.21;100792.25;5088535;28;20039;-71
2021/09/24 07:48:44;;;;;;;22.15;4.03;;;;;;;13.49;83.17;100789.13;5090336;28;20036;-71
2021/09/24 07:51:10;;;;;;;33.33;4.57;;;;;;;13.39;83.10;100792.06;5088930;28;20468;-71
2021/09/24 07:53:37;;;;;;;27.08;4.45;;;;;;;13.01;84.54;100791.94;5090175;28;20349;-71
2021/09/24 07:56:04;;;;;;;25.67;4.38;;;;;;;12.99;86.37;100804.69;5090414;28;20032;-71
2021/09/24 07:58:29;;;;;;;52.80;9.82;;;;;;;13.09;87.38;100810.69;5089652;28;20040;-71
2021/09/24 08:00:55;;;;;;;21.80;4.60;;;;;;;12.87;87.28;100806.09;5090484;28;20081;-71
2021/09/24 08:03:20;;;;;;;25.80;3.80;;;;;;;12.89;87.74;100804.91;5090909;28;20039;-71
2021/09/24 08:05:46;;;;;;;26.67;3.83;;;;;;;12.84;87.89;100811.81;5089704;28;20040;-71
2021/09/24 08:08:11;;;;;;;30.60;4.53;;;;;;;12.99;88.84;100810.03;5090622;28;20108;-71
2021/09/24 08:10:36;;;;;;;17.50;4.07;;;;;;;13.05;88.45;100812.03;5072027;28;20036;-71
2021/09/24 08:13:02;;;;;;;24.33;3.87;;;;;;;12.88;89.17;100805.13;5090453;28;20039;-70
2021/09/24 08:15:27;;;;;;;25.00;4.20;;;;;;;12.98;90.28;100813.75;5090401;28;20479;-71
2021/09/24 08:17:53;;;;;;;20.60;4.87;;;;;;;13.13;90.76;100818.34;5090413;28;20361;-70
2021/09/24 08:20:19;;;;;;;23.33;4.70;;;;;;;12.95;90.11;100803.41;5090228;28;20071;-70
2021/09/24 08:22:45;;;;;;;28.38;4.25;;;;;;;12.77;91.97;100813.53;5089292;28;20368;-71
2021/09/24 08:25:14;;;;;;;18.35;3.10;;;;;;;12.93;92.50;100813.47;5090223;28;20039;-71
2021/09/24 08:27:40;;;;;;;24.95;4.18;;;;;;;13.00;93.24;100827.00;5089064;28;20473;-71
2021/09/24 08:30:11;;;;;;;14.35;3.05;;;;;;;13.05;92.73;100822.75;5090058;28;20115;-71
2021/09/24 08:32:38;;;;;;;22.98;3.97;;;;;;;12.98;92.70;100824.47;5090178;28;20047;-71
2021/09/24 08:35:06;;;;;;;37.65;6.80;;;;;;;12.94;93.22;100831.19;5090162;28;20118;-71
2021/09/24 08:37:32;;;;;;;17.25;3.63;;;;;;;13.13;93.63;100834.44;5089801;28;20032;-71
2021/09/24 08:39:57;;;;;;;14.38;3.47;;;;;;;12.93;94.82;100829.53;5072064;28;20039;-71
2021/09/24 08:42:22;;;;;;;16.17;4.17;;;;;;;13.07;94.92;100841.34;5089943;28;20111;-71
2021/09/24 08:44:49;;;;;;;17.97;4.47;;;;;;;12.83;95.33;100836.94;5089967;28;20119;-71
2021/09/24 08:47:16;;;;;;;20.60;4.20;;;;;;;13.00;95.87;100846.56;5088669;28;20027;-71
2021/09/24 08:49:43;;;;;;;24.33;3.50;;;;;;;13.08;95.45;100843.00;5089706;28;20040;-71
2021/09/24 08:52:08;;;;;;;27.90;4.68;;;;;;;13.10;95.24;100835.63;5088725;28;20068;-71
2021/09/24 08:54:34;;;;;;;25.65;3.80;;;;;;;13.08;94.53;100833.13;5089185;28;20373;-71
2021/09/24 08:56:59;;;;;;;21.83;4.00;;;;;;;13.09;95.88;100833.97;5089385;28;20066;-71
2021/09/24 08:59:24;;;;;;;31.33;4.27;;;;;;;13.02;96.30;100836.53;5071206;28;20059;-71
2021/09/24 09:02:08;;;;;;;14.33;3.97;;;;;;;13.07;97.50;100839.50;5071733;28;20028;-71
2021/09/24 09:04:42;;;;;;;20.80;3.00;;;;;;;13.10;97.62;100844.50;5070910;28;20042;-71
2021/09/24 09:07:10;;;;;;;29.63;4.07;;;;;;;13.18;98.16;100854.34;5088608;28;20437;-71
2021/09/24 09:09:39;;;;;;;23.35;3.78;;;;;;;13.28;98.42;100852.31;5087464;28;20115;-71
2021/09/24 09:12:20;;;;;;;13.35;3.58;;;;;;;13.23;98.51;100857.34;5089456;28;20118;-71
2021/09/24 09:14:57;;;;;;;19.40;3.47;;;;;;;13.15;99.11;100859.22;5088906;28;20039;-71
2021/09/24 09:17:31;;;;;;;19.55;4.50;;;;;;;13.07;100.00;100857.44;5089156;28;20048;-71
2021/09/24 09:20:07;;;;;;;25.75;4.38;;;;;;;13.18;100.00;100858.84;5088010;28;20036;-71
2021/09/24 09:22:33;;;;;;;22.48;4.38;;;;;;;13.23;100.00;100857.34;5089102;28;20047;-71
2021/09/24 09:24:58;;;;;;;23.63;3.88;;;;;;;13.04;100.00;100863.97;5088938;28;20043;-71
2021/09/24 09:27:24;;;;;;;26.57;5.70;;;;;;;12.81;100.00;100863.09;5088999;28;20365;-71
2021/09/24 09:30:13;;;;;;;30.80;4.10;;;;;;;12.79;100.00;100868.63;5087631;28;20731;-70
2021/09/24 09:32:39;;;;;;;26.05;4.60;;;;;;;12.81;100.00;100879.16;5089064;28;20032;-70
2021/09/24 09:35:07;;;;;;;23.65;3.85;;;;;;;12.76;100.00;100882.38;5088586;28;20085;-70
2021/09/24 09:37:37;;;;;;;28.63;5.63;;;;;;;12.78;100.00;100884.84;5088762;28;20040;-70
2021/09/24 09:40:13;;;;;;;34.78;7.78;;;;;;;12.66;100.00;100887.06;5087318;28;20120;-70
2021/09/24 09:42:41;;;;;;;23.70;4.47;;;;;;;12.71;100.00;100894.59;5071110;28;20035;-70
2021/09/24 09:45:09;;;;;;;21.60;4.45;;;;;;;12.81;100.00;100893.38;5088513;28;20050;-70
2021/09/24 09:47:36;;;;;;;22.45;4.55;;;;;;;12.86;100.00;100893.69;5088722;28;20410;-70
2021/09/24 09:50:14;;;;;;;32.10;5.63;;;;;;;12.95;100.00;100897.19;5088266;28;20097;-70
2021/09/24 09:52:59;;;;;;;30.85;5.55;;;;;;;12.88;100.00;100896.22;5087690;28;20043;-70
2021/09/24 09:55:27;;;;;;;25.27;5.38;;;;;;;12.91;100.00;100900.38;5088394;28;20032;-70
2021/09/24 09:57:55;;;;;;;26.40;5.63;;;;;;;13.02;100.00;100905.38;5088416;28;20044;-70
2021/09/24 10:00:21;;;;;;;25.38;5.45;;;;;;;13.07;100.00;100901.16;5088153;28;20074;-70
2021/09/24 10:02:47;;;;;;;24.98;5.60;;;;;;;13.10;100.00;100897.28;5087713;28;20031;-70
2021/09/24 10:05:33;;;;;;;26.17;5.82;;;;;;;13.14;100.00;100906.66;5087838;28;20108;-70
2021/09/24 10:07:58;;;;;;;;;;;;;;;13.18;100.00;100902.63;5088885;28;20481;-70
2021/09/24 10:10:24;;;;;;;;;;;;;;;13.22;100.00;100889.69;5088255;28;19912;-70
2021/09/24 10:12:49;;;;;;;19.00;5.77;;;;;;;13.12;100.00;100881.84;5053980;28;19951;-70
2021/09/24 10:15:15;;;;;;;15.13;6.00;;;;;;;13.13;100.00;100886.19;5088339;28;20056;-70
2021/09/24 10:17:42;;;;;;;14.27;4.95;;;;;;;13.15;100.00;100891.38;5088305;28;20089;-69
2021/09/24 10:20:10;;;;;;;26.65;6.68;;;;;;;13.26;100.00;100899.03;5088010;28;20043;-70
2021/09/24 10:22:36;;;;;;;21.00;5.63;;;;;;;13.37;100.00;100896.00;5086859;28;20044;-70
2021/09/24 10:25:02;;;;;;;23.63;6.53;;;;;;;13.40;100.00;100879.53;5088337;28;20054;-70
2021/09/24 10:27:37;;;;;;;25.08;6.57;;;;;;;13.54;100.00;100893.22;5088151;28;20028;-70
2021/09/24 10:30:09;;;;;;;18.33;7.70;;;;;;;13.67;100.00;100878.19;5088121;28;20535;-70
2021/09/24 10:32:35;;;;;;;13.15;6.00;;;;;;;13.77;100.00;100871.75;5070515;28;20127;-70
2021/09/24 10:35:10;;;;;;;14.45;6.50;;;;;;;13.74;100.00;100867.53;5087123;28;20093;-71
2021/09/24 10:37:39;;;;;;;16.08;6.65;;;;;;;13.70;100.00;100866.25;5088016;28;20044;-71
2021/09/24 10:40:26;;;;;;;17.63;7.10;;;;;;;13.79;100.00;100873.22;5087997;28;20445;-71
2021/09/24 10:43:01;;;;;;;12.75;6.30;;;;;;;13.74;100.00;100870.22;5087852;28;20046;-71
2021/09/24 10:45:39;;;;;;;22.27;6.30;;;;;;;13.68;100.00;100865.59;5071425;28;20423;-72
2021/09/24 10:48:20;;;;;;;17.50;6.50;;;;;;;13.76;100.00;100859.31;5086542;28;20040;-72
2021/09/24 10:50:50;;;;;;;16.35;5.85;;;;;;;13.73;100.00;100855.16;5087724;28;20453;-72
2021/09/24 10:53:23;;;;;;;13.75;5.60;;;;;;;13.76;100.00;100856.66;5069636;28;20031;-71
2021/09/24 10:55:54;;;;;;;13.02;5.63;;;;;;;13.84;100.00;100846.69;5087978;28;20028;-72
2021/09/24 10:58:23;;;;;;;9.65;5.03;;;;;;;13.83;100.00;100847.69;5088059;28;20032;-72
2021/09/24 11:00:50;;;;;;;11.98;4.80;;;;;;;13.87;100.00;100832.88;5087732;28;20506;-72
2021/09/24 11:03:22;;;;;;;15.13;4.90;;;;;;;13.87;100.00;100830.22;5088088;28;20016;-72
2021/09/24 11:06:09;;;;;;;12.07;5.18;;;;;;;13.91;100.00;100828.00;5087356;28;20112;-72
2021/09/24 11:08:36;;;;;;;17.73;5.25;;;;;;;13.78;100.00;100830.47;5086885;28;20047;-72
2021/09/24 11:11:28;;;;;;;12.70;5.65;;;;;;;13.84;100.00;100843.16;5086939;28;20074;-72
2021/09/24 11:13:58;;;;;;;12.48;6.25;;;;;;;13.88;100.00;100844.44;5087857;28;20453;-72
2021/09/24 11:16:43;;;;;;;14.85;7.13;;;;;;;13.96;100.00;100849.75;5086571;28;20089;-75